createdAt,value
2019-04-06T00:00:10.008Z,19.59
2019-04-06T00:02:03.004Z,19.78
2019-04-06T00:03:03.039Z,19.78
2019-04-06T00:04:56.039Z,19.49
2019-04-06T00:05:56.074Z,19.39
2019-04-06T00:07:49.059Z,19.49
2019-04-06T00:08:49.107Z,19.30
2019-04-06T00:10:42.105Z,19.39
2019-04-06T00:11:42.144Z,19.39
2019-04-06T00:13:35.160Z,19.30
2019-04-06T00:14:35.198Z,19.39
2019-04-06T00:16:28.187Z,19.68
2019-04-06T00:17:28.232Z,19.59
2019-04-06T00:19:21.225Z,19.59
2019-04-06T00:20:21.262Z,19.59
2019-04-06T00:22:14.258Z,19.87
2019-04-06T00:23:14.295Z,19.78
2019-04-06T00:25:07.291Z,19.96
2019-04-06T00:26:07.332Z,19.87
2019-04-06T00:28:00.356Z,19.78
2019-04-06T00:29:00.364Z,20.34
2019-04-06T00:30:53.359Z,20.15
2019-04-06T00:31:53.401Z,20.15
2019-04-06T00:33:46.383Z,20.25
2019-04-06T00:34:46.428Z,19.87
2019-04-06T00:36:39.415Z,20.25
2019-04-06T00:37:39.463Z,20.15
2019-04-06T00:39:32.462Z,20.15
2019-04-06T00:40:32.495Z,20.06
2019-04-06T00:42:25.467Z,20.25
2019-04-06T00:43:25.522Z,20.15
2019-04-06T00:45:18.517Z,20.15
2019-04-06T00:46:18.555Z,20.15
2019-04-06T00:48:11.545Z,20.44
2019-04-06T00:49:11.605Z,20.44
2019-04-06T00:51:04.595Z,20.53
2019-04-06T00:52:04.625Z,20.92
2019-04-06T00:53:57.607Z,21.01
2019-04-06T00:54:57.661Z,21.01
2019-04-06T00:56:50.665Z,21.11
2019-04-06T00:57:50.692Z,21.01
2019-04-06T00:59:43.670Z,21.11
2019-04-06T01:00:43.730Z,21.20
2019-04-06T01:02:36.725Z,20.73
2019-04-06T01:03:36.765Z,20.63
2019-04-06T01:05:29.739Z,20.73
2019-04-06T01:06:29.799Z,20.63
2019-04-06T01:08:22.796Z,21.11
2019-04-06T01:09:22.834Z,20.73
2019-04-06T01:11:15.819Z,20.63
2019-04-06T01:12:15.873Z,20.82
2019-04-06T01:14:08.887Z,21.20
2019-04-06T01:15:08.907Z,20.92
2019-04-06T01:17:01.904Z,21.11
2019-04-06T01:18:01.940Z,20.92
2019-04-06T01:19:54.936Z,21.11
2019-04-06T01:20:54.972Z,21.11
2019-04-06T01:22:47.949Z,21.11
2019-04-06T01:23:48.061Z,21.11
2019-04-06T01:25:41.000Z,20.92
2019-04-06T01:26:41.038Z,20.73
2019-04-06T01:28:34.021Z,20.82
2019-04-06T01:29:34.155Z,20.73
2019-04-06T01:31:27.075Z,20.82
2019-04-06T01:32:27.112Z,20.82
2019-04-06T01:34:20.098Z,20.73
2019-04-06T01:35:20.143Z,20.73
2019-04-06T01:37:13.646Z,20.82
2019-04-06T01:38:13.683Z,20.63
2019-04-06T01:40:06.676Z,20.73
2019-04-06T01:41:06.720Z,20.92
2019-04-06T01:42:59.731Z,20.92
2019-04-06T01:43:59.761Z,20.73
2019-04-06T01:45:52.745Z,20.82
2019-04-06T01:46:52.796Z,20.73
2019-04-06T01:48:45.798Z,20.82
2019-04-06T01:49:46.113Z,20.63
2019-04-06T01:51:38.872Z,20.53
2019-04-06T01:52:38.865Z,20.73
2019-04-06T01:54:31.862Z,20.73
2019-04-06T01:55:32.032Z,20.53
2019-04-06T01:57:24.905Z,20.82
2019-04-06T01:58:24.941Z,20.82
2019-04-06T02:00:17.914Z,20.73
2019-04-06T02:01:17.975Z,21.20
2019-04-06T02:03:10.980Z,21.20
2019-04-06T02:04:11.002Z,21.01
2019-04-06T02:06:04.007Z,21.11
2019-04-06T02:07:04.065Z,21.39
2019-04-06T02:08:57.032Z,21.39
2019-04-06T02:09:57.093Z,20.73
2019-04-06T02:11:50.092Z,20.92
2019-04-06T02:12:50.377Z,20.92
2019-04-06T02:14:43.108Z,21.11
2019-04-06T02:15:43.169Z,21.20
2019-04-06T02:17:36.163Z,20.63
2019-04-06T02:18:36.199Z,20.73
2019-04-06T02:20:29.175Z,21.11
2019-04-06T02:21:29.231Z,21.20
2019-04-06T02:23:22.238Z,20.73
2019-04-06T02:24:22.266Z,21.01
2019-04-06T02:26:15.244Z,20.63
2019-04-06T02:27:15.301Z,21.01
2019-04-06T02:29:08.297Z,20.92
2019-04-06T02:30:08.336Z,21.01
2019-04-06T02:32:01.311Z,20.82
2019-04-06T02:33:01.368Z,20.73
2019-04-06T02:34:54.367Z,20.53
2019-04-06T02:35:54.404Z,20.82
2019-04-06T02:37:47.940Z,20.82
2019-04-06T02:38:47.944Z,20.82
2019-04-06T02:40:41.084Z,20.63
2019-04-06T02:41:40.978Z,20.82
2019-04-06T02:43:34.087Z,20.82
2019-04-06T02:44:34.012Z,20.82
2019-04-06T02:46:27.016Z,20.73
2019-04-06T02:47:27.093Z,20.73
2019-04-06T02:49:20.241Z,20.73
2019-04-06T02:50:20.093Z,20.92
2019-04-06T02:52:13.100Z,20.73
2019-04-06T02:53:13.391Z,21.11
2019-04-06T02:55:06.214Z,21.20
2019-04-06T02:56:06.173Z,21.20
2019-04-06T02:57:59.165Z,20.92
2019-04-06T02:58:59.491Z,21.11
2019-04-06T03:00:52.195Z,21.20
2019-04-06T03:01:52.248Z,21.11
2019-04-06T03:03:45.241Z,21.12
2019-04-06T03:04:45.275Z,21.31
2019-04-06T03:06:38.256Z,21.50
2019-04-06T03:07:38.308Z,21.39
2019-04-06T03:09:31.321Z,21.11
2019-04-06T03:10:31.339Z,21.20
2019-04-06T03:12:24.315Z,21.01
2019-04-06T03:13:24.475Z,20.92
2019-04-06T03:15:17.380Z,20.92
2019-04-06T03:16:17.535Z,21.11
2019-04-06T03:18:10.402Z,21.11
2019-04-06T03:19:10.447Z,21.20
2019-04-06T03:21:03.451Z,20.92
2019-04-06T03:22:03.484Z,21.02
2019-04-06T03:23:56.480Z,21.02
2019-04-06T03:24:56.633Z,21.11
2019-04-06T03:27:00.652Z,20.92
2019-04-06T03:27:49.691Z,21.11
2019-04-06T03:29:56.190Z,20.73
2019-04-06T03:30:42.589Z,20.64
2019-04-06T03:32:35.795Z,21.20
2019-04-06T03:33:35.622Z,20.92
2019-04-06T03:35:28.790Z,21.30
2019-04-06T03:36:28.872Z,21.39
2019-04-06T03:38:21.998Z,21.40
2019-04-06T03:39:22.084Z,21.30
2019-04-06T03:41:15.407Z,21.20
2019-04-06T03:42:15.462Z,20.92
2019-04-06T03:44:08.469Z,21.21
2019-04-06T03:45:08.557Z,21.30
2019-04-06T03:47:01.485Z,21.31
2019-04-06T03:48:01.542Z,21.31
2019-04-06T03:49:54.562Z,21.11
2019-04-06T03:50:54.574Z,21.40
2019-04-06T03:52:47.549Z,21.21
2019-04-06T03:53:47.611Z,20.73
2019-04-06T03:55:40.606Z,20.83
2019-04-06T03:56:40.643Z,20.53
2019-04-06T03:58:33.886Z,20.54
2019-04-06T03:59:33.682Z,20.44
2019-04-06T04:01:26.669Z,20.07
2019-04-06T04:02:26.717Z,19.98
2019-04-06T04:04:19.729Z,20.45
2019-04-06T04:05:19.747Z,20.07
2019-04-06T04:07:12.745Z,20.26
2019-04-06T04:08:12.785Z,20.36
2019-04-06T04:10:05.760Z,19.59
2019-04-06T04:11:05.816Z,19.78
2019-04-06T04:12:58.812Z,19.98
2019-04-06T04:13:58.861Z,19.98
2019-04-06T04:15:51.999Z,19.69
2019-04-06T04:16:51.905Z,19.78
2019-04-06T04:18:44.913Z,19.69
2019-04-06T04:19:44.962Z,19.59
2019-04-06T04:21:37.924Z,19.21
2019-04-06T04:22:37.983Z,18.93
2019-04-06T04:24:30.980Z,19.12
2019-04-06T04:25:31.017Z,19.50
2019-04-06T04:27:29.927Z,19.50
2019-04-06T04:28:24.055Z,19.50
2019-04-06T04:30:30.778Z,19.31
2019-04-06T04:31:17.393Z,19.02
2019-04-06T04:33:10.079Z,18.93
2019-04-06T04:34:10.129Z,18.93
2019-04-06T04:36:03.155Z,19.12
2019-04-06T04:37:03.315Z,18.74
2019-04-06T04:38:56.143Z,18.74
2019-04-06T04:39:56.198Z,19.12
2019-04-06T04:41:49.247Z,19.21
2019-04-06T04:42:49.244Z,19.50
2019-04-06T04:44:42.242Z,19.59
2019-04-06T04:45:42.278Z,19.12
2019-04-06T04:47:35.260Z,19.59
2019-04-06T04:48:35.425Z,19.50
2019-04-06T04:50:28.315Z,19.31
2019-04-06T04:51:28.351Z,18.93
2019-04-06T04:53:21.328Z,19.02
2019-04-06T04:54:21.455Z,19.40
2019-04-06T04:56:14.396Z,19.59
2019-04-06T04:57:14.424Z,19.50
2019-04-06T04:59:07.651Z,19.21
2019-04-06T05:00:07.453Z,19.40
2019-04-06T05:02:00.449Z,19.59
2019-04-06T05:03:00.489Z,19.59
2019-04-06T05:04:53.479Z,19.50
2019-04-06T05:05:53.520Z,19.02
2019-04-06T05:07:46.513Z,19.02
2019-04-06T05:08:46.573Z,19.69
2019-04-06T05:10:39.711Z,19.40
2019-04-06T05:11:39.588Z,19.50
2019-04-06T05:13:32.569Z,19.88
2019-04-06T05:14:32.628Z,19.69
2019-04-06T05:16:25.626Z,19.88
2019-04-06T05:17:25.664Z,19.98
2019-04-06T05:19:18.664Z,19.98
2019-04-06T05:20:18.722Z,19.98
2019-04-06T05:22:11.707Z,19.78
2019-04-06T05:23:11.735Z,20.36
2019-04-06T05:25:04.725Z,20.45
2019-04-06T05:26:04.776Z,20.07
2019-04-06T05:27:57.784Z,20.92
2019-04-06T05:28:57.811Z,20.92
2019-04-06T05:30:50.788Z,20.92
2019-04-06T05:31:50.845Z,21.50
2019-04-06T05:33:43.838Z,21.88
2019-04-06T05:34:43.897Z,21.40
2019-04-06T05:36:37.098Z,21.97
2019-04-06T05:37:36.911Z,21.97
2019-04-06T05:39:29.890Z,22.16
2019-04-06T05:40:29.953Z,22.45
2019-04-06T05:42:22.942Z,22.16
2019-04-06T05:43:22.978Z,22.54
2019-04-06T05:45:16.025Z,22.64
2019-04-06T05:46:16.018Z,22.45
2019-04-06T05:48:09.005Z,22.92
2019-04-06T05:49:09.050Z,22.92
2019-04-06T05:51:02.050Z,22.64
2019-04-06T05:52:02.081Z,23.21
2019-04-06T05:53:55.080Z,23.32
2019-04-06T05:54:55.117Z,23.21
2019-04-06T05:56:48.295Z,23.79
2019-04-06T05:57:48.151Z,23.89
2019-04-06T05:59:41.139Z,23.59
2019-04-06T06:00:41.291Z,23.79
2019-04-06T06:02:34.165Z,23.79
2019-04-06T06:03:34.219Z,23.41
2019-04-06T06:05:27.216Z,24.37
2019-04-06T06:06:27.430Z,24.84
2019-04-06T06:08:20.248Z,24.46
2019-04-06T06:09:20.305Z,25.12
2019-04-06T06:11:13.303Z,25.70
2019-04-06T06:12:13.337Z,25.51
2019-04-06T06:14:06.327Z,25.41
2019-04-06T06:15:06.376Z,26.07
2019-04-06T06:16:59.352Z,25.41
2019-04-06T06:17:59.410Z,25.70
2019-04-06T06:19:52.452Z,25.98
2019-04-06T06:20:52.443Z,25.70
2019-04-06T06:22:45.419Z,25.98
2019-04-06T06:23:45.483Z,26.46
2019-04-06T06:25:38.477Z,26.26
2019-04-06T06:26:38.514Z,26.07
2019-04-06T06:28:31.624Z,26.26
2019-04-06T06:29:31.546Z,26.46
2019-04-06T06:31:24.523Z,26.84
2019-04-06T06:32:24.778Z,27.12
2019-04-06T06:34:17.580Z,26.84
2019-04-06T06:35:17.679Z,26.65
2019-04-06T06:37:10.595Z,27.03
2019-04-06T06:38:10.661Z,27.03
2019-04-06T06:40:03.671Z,26.93
2019-04-06T06:41:03.703Z,26.84
2019-04-06T06:42:56.704Z,26.84
2019-04-06T06:43:56.737Z,27.22
2019-04-06T06:45:49.732Z,27.22
2019-04-06T06:46:49.900Z,27.31
2019-04-06T06:48:43.138Z,27.41
2019-04-06T06:49:42.810Z,27.50
2019-04-06T06:51:35.820Z,27.51
2019-04-06T06:52:35.881Z,27.51
2019-04-06T06:54:28.844Z,28.47
2019-04-06T06:55:28.965Z,28.66
2019-04-06T06:57:21.885Z,28.75
2019-04-06T06:58:25.506Z,29.04
2019-04-06T07:00:14.897Z,29.33
2019-04-06T07:01:14.996Z,29.61
2019-04-06T07:03:07.941Z,30.09
2019-04-06T07:04:08.095Z,30.28
2019-04-06T07:06:00.994Z,29.99
2019-04-06T07:07:01.022Z,30.09
2019-04-06T07:08:54.034Z,29.99
2019-04-06T07:10:04.203Z,29.90
2019-04-06T07:11:47.048Z,30.09
2019-04-06T07:12:47.128Z,29.99
2019-04-06T07:14:40.119Z,30.28
2019-04-06T07:15:40.157Z,30.57
2019-04-06T07:17:33.154Z,30.76
2019-04-06T07:18:33.196Z,30.85
2019-04-06T07:20:26.205Z,31.04
2019-04-06T07:21:26.227Z,30.85
2019-04-06T07:23:19.212Z,30.94
2019-04-06T07:24:19.474Z,30.96
2019-04-06T07:26:12.268Z,32.10
2019-04-06T07:27:12.319Z,31.82
2019-04-06T07:29:05.306Z,32.01
2019-04-06T07:30:05.604Z,32.48
2019-04-06T07:31:58.340Z,32.68
2019-04-06T07:32:58.377Z,32.87
2019-04-06T07:34:51.560Z,32.77
2019-04-06T07:35:51.415Z,33.06
2019-04-06T07:37:44.395Z,33.82
2019-04-06T07:38:44.451Z,33.72
2019-04-06T07:40:37.461Z,33.63
2019-04-06T07:41:37.486Z,33.53
2019-04-06T07:43:30.474Z,32.96
2019-04-06T07:44:30.529Z,33.15
2019-04-06T07:46:23.531Z,33.06
2019-04-06T07:47:23.566Z,33.15
2019-04-06T07:49:16.622Z,32.96
2019-04-06T07:50:16.609Z,32.98
2019-04-06T07:52:09.670Z,34.03
2019-04-06T07:53:09.801Z,33.93
2019-04-06T07:55:02.731Z,34.12
2019-04-06T07:56:02.757Z,34.69
2019-04-06T07:57:55.714Z,34.41
2019-04-06T07:58:55.776Z,34.50
2019-04-06T08:00:48.761Z,35.17
2019-04-06T08:01:49.095Z,35.17
2019-04-06T08:03:41.811Z,35.27
2019-04-06T08:04:41.869Z,34.79
2019-04-06T08:06:34.914Z,35.95
2019-04-06T08:07:34.903Z,35.74
2019-04-06T08:09:27.877Z,36.03
2019-04-06T08:10:28.175Z,36.22
2019-04-06T08:12:21.166Z,35.55
2019-04-06T08:13:21.009Z,35.64
2019-04-06T08:15:13.971Z,35.46
2019-04-06T08:16:14.189Z,34.98
2019-04-06T08:18:08.144Z,35.00
2019-04-06T08:19:07.049Z,34.52
2019-04-06T08:21:00.335Z,34.61
2019-04-06T08:22:00.308Z,37.00
2019-04-06T08:23:53.101Z,38.62
2019-04-06T08:24:53.165Z,38.24
2019-04-06T08:26:46.592Z,37.76
2019-04-06T08:27:46.294Z,38.91
2019-04-06T08:29:39.199Z,38.53
2019-04-06T08:30:45.430Z,38.62
2019-04-06T08:32:32.237Z,37.88
2019-04-06T08:33:32.275Z,39.98
2019-04-06T08:35:26.613Z,41.33
2019-04-06T08:36:25.311Z,44.17
2019-04-06T08:38:18.319Z,42.48
2019-04-06T08:39:18.396Z,42.29
2019-04-06T08:41:11.418Z,45.53
2019-04-06T08:42:11.411Z,46.20
2019-04-06T08:44:04.386Z,44.96
2019-04-06T08:45:04.453Z,47.63
2019-04-06T08:46:57.462Z,50.24
2019-04-06T08:47:57.708Z,50.04
2019-04-06T08:49:50.483Z,49.07
2019-04-06T08:50:50.559Z,49.85
2019-04-06T08:52:43.534Z,54.66
2019-04-06T08:53:43.566Z,54.27
2019-04-06T08:55:36.724Z,57.07
2019-04-06T08:56:36.615Z,58.67
2019-04-06T08:58:29.602Z,56.38
2019-04-06T08:59:29.663Z,62.30
2019-04-06T09:01:22.664Z,65.45
2019-04-06T09:02:22.704Z,66.22
2019-04-06T09:04:15.744Z,70.09
2019-04-06T09:05:15.752Z,65.88
2019-04-06T09:07:08.739Z,70.66
2019-04-06T09:08:08.799Z,69.19
2019-04-06T09:10:02.070Z,62.37
2019-04-06T09:11:01.844Z,61.31
2019-04-06T09:15:33.075Z,60.80
2019-04-06T09:16:15.127Z,62.46
2019-04-06T09:18:08.129Z,61.95
2019-04-06T09:19:08.175Z,61.38
2019-04-06T09:21:01.370Z,62.84
2019-04-06T09:22:01.354Z,63.23
2019-04-06T09:23:54.247Z,66.22
2019-04-06T09:24:54.285Z,67.85
2019-04-06T09:26:48.233Z,64.85
2019-04-06T09:27:47.533Z,63.51
2019-04-06T09:29:40.524Z,60.33
2019-04-06T09:30:40.502Z,61.12
2019-04-06T09:32:33.377Z,61.22
2019-04-06T09:33:33.424Z,62.68
2019-04-06T09:35:26.450Z,63.26
2019-04-06T09:36:26.477Z,64.22
2019-04-06T09:38:19.737Z,65.68
2019-04-06T09:39:19.540Z,63.35
2019-04-06T09:41:12.733Z,64.37
2019-04-06T09:42:12.576Z,63.70
2019-04-06T09:44:05.585Z,63.64
2019-04-06T09:45:05.634Z,65.17
2019-04-06T09:46:58.622Z,63.64
2019-04-06T09:47:58.679Z,61.15
2019-04-06T09:49:51.693Z,61.85
2019-04-06T09:50:51.755Z,66.64
2019-04-06T09:52:44.730Z,65.39
2019-04-06T09:53:44.781Z,70.09
2019-04-06T09:55:37.760Z,66.86
2019-04-06T09:56:37.825Z,69.17
2019-04-06T09:58:30.928Z,70.60
2019-04-06T09:59:35.807Z,70.50
2019-04-06T10:01:23.854Z,70.50
2019-04-06T10:02:23.917Z,67.50
2019-04-06T10:04:16.927Z,65.88
2019-04-06T10:05:16.964Z,65.62
2019-04-06T10:07:09.969Z,68.65
2019-04-06T10:08:10.011Z,69.42
2019-04-06T10:10:03.019Z,64.47
2019-04-06T10:11:03.061Z,69.45
2019-04-06T10:12:56.048Z,69.60
2019-04-06T10:13:56.111Z,69.60
2019-04-06T10:15:50.607Z,70.28
2019-04-06T10:16:50.659Z,70.98
2019-04-06T10:18:43.659Z,69.93
2019-04-06T10:19:43.703Z,72.90
2019-04-06T10:21:37.309Z,71.33
2019-04-06T10:22:37.392Z,68.65
2019-04-06T10:24:30.273Z,72.19
2019-04-06T10:25:30.312Z,70.37
2019-04-06T10:27:23.290Z,65.97
2019-04-06T10:28:23.434Z,71.14
2019-04-06T10:30:16.365Z,72.67
2019-04-06T10:31:16.411Z,70.66
2019-04-06T10:33:09.429Z,70.28
2019-04-06T10:34:09.455Z,69.23
2019-04-06T10:36:02.470Z,69.13
2019-04-06T10:37:02.509Z,66.93
2019-04-06T10:38:55.573Z,69.03
2019-04-06T10:39:55.556Z,67.69
2019-04-06T10:41:48.758Z,66.54
2019-04-06T10:42:48.609Z,67.25
2019-04-06T10:44:41.604Z,70.60
2019-04-06T10:45:41.858Z,70.50
2019-04-06T10:47:34.636Z,66.13
2019-04-06T10:48:34.716Z,67.27
2019-04-06T10:50:27.717Z,63.00
2019-04-06T10:51:27.746Z,64.34
2019-04-06T10:53:20.735Z,68.46
2019-04-06T10:54:20.790Z,68.78
2019-04-06T10:56:13.800Z,68.11
2019-04-06T10:57:13.853Z,68.65
2019-04-06T10:59:06.840Z,67.60
2019-04-06T11:00:06.885Z,67.79
2019-04-06T11:01:59.892Z,70.79
2019-04-06T11:02:59.973Z,71.27
2019-04-06T11:04:52.932Z,70.41
2019-04-06T11:05:53.210Z,71.08
2019-04-06T11:07:46.015Z,70.83
2019-04-06T11:08:46.049Z,73.66
2019-04-06T11:10:39.058Z,74.24
2019-04-06T11:11:39.111Z,74.05
2019-04-06T11:13:32.141Z,73.44
2019-04-06T11:14:32.205Z,74.58
2019-04-06T11:16:25.183Z,73.05
2019-04-06T11:17:25.506Z,72.32
2019-04-06T11:19:18.222Z,71.08
2019-04-06T11:20:18.603Z,74.11
2019-04-06T11:22:11.259Z,74.62
2019-04-06T11:23:11.303Z,75.71
2019-04-06T11:25:04.303Z,77.44
2019-04-06T11:26:04.355Z,76.57
2019-04-06T11:27:57.362Z,73.32
2019-04-06T11:28:57.424Z,73.80
2019-04-06T11:30:50.433Z,69.26
2019-04-06T11:31:50.474Z,72.61
2019-04-06T11:33:43.476Z,71.11
2019-04-06T11:34:43.526Z,73.86
2019-04-06T11:36:36.536Z,75.68
2019-04-06T11:37:36.578Z,76.19
2019-04-06T11:39:29.820Z,73.99
2019-04-06T11:40:29.625Z,76.29
2019-04-06T11:42:22.642Z,76.96
2019-04-06T11:43:22.670Z,74.24
2019-04-06T11:45:15.671Z,75.68
2019-04-06T11:46:15.734Z,74.62
2019-04-06T11:48:08.941Z,74.05
2019-04-06T11:49:08.784Z,73.86
2019-04-06T11:51:01.772Z,75.58
2019-04-06T11:52:01.830Z,75.58
2019-04-06T11:53:54.845Z,73.95
2019-04-06T11:54:54.883Z,73.47
2019-04-06T11:56:47.874Z,74.52
2019-04-06T11:57:47.936Z,73.47
2019-04-06T11:59:40.946Z,74.76
2019-04-06T12:00:40.982Z,75.62
2019-04-06T12:02:33.996Z,75.52
2019-04-06T12:03:34.126Z,74.66
2019-04-06T12:05:27.221Z,74.85
2019-04-06T12:06:27.363Z,74.91
2019-04-06T12:08:20.182Z,75.48
2019-04-06T12:09:20.338Z,74.33
2019-04-06T12:11:13.147Z,75.71
2019-04-06T12:12:13.203Z,75.62
2019-04-06T12:14:06.242Z,73.70
2019-04-06T12:15:06.250Z,76.29
2019-04-06T12:16:59.273Z,76.29
2019-04-06T12:17:59.299Z,76.67
2019-04-06T12:19:52.295Z,77.06
2019-04-06T12:20:52.701Z,79.07
2019-04-06T12:22:45.602Z,75.65
2019-04-06T12:23:45.399Z,76.96
2019-04-06T12:25:38.386Z,76.48
2019-04-06T12:26:38.447Z,76.29
2019-04-06T12:28:31.453Z,76.96
2019-04-06T12:29:31.549Z,74.89
2019-04-06T12:31:24.476Z,77.25
2019-04-06T12:32:24.545Z,75.18
2019-04-06T12:34:17.554Z,75.33
2019-04-06T12:35:17.687Z,76.10
2019-04-06T12:37:10.581Z,77.95
2019-04-06T12:38:10.899Z,79.39
2019-04-06T12:40:04.728Z,78.09
2019-04-06T12:41:04.781Z,75.79
2019-04-06T12:42:59.588Z,79.05
2019-04-06T12:43:59.865Z,79.63
2019-04-06T12:45:52.530Z,76.10
2019-04-06T12:46:53.280Z,76.77
2019-04-06T12:48:45.814Z,76.57
2019-04-06T12:49:45.625Z,75.23
2019-04-06T12:51:38.617Z,77.82
2019-04-06T12:52:38.680Z,76.04
2019-04-06T12:54:32.189Z,77.76
2019-04-06T12:55:32.280Z,79.01
2019-04-06T12:57:27.040Z,79.63
2019-04-06T12:58:26.922Z,78.38
2019-04-06T13:00:20.247Z,78.15
2019-04-06T13:01:20.314Z,79.01
2019-04-06T13:03:12.984Z,78.53
2019-04-06T13:04:13.089Z,78.57
2019-04-06T13:06:06.029Z,79.68
2019-04-06T13:07:06.125Z,78.63
2019-04-06T13:08:59.396Z,78.05
2019-04-06T13:09:59.136Z,79.39
2019-04-06T13:11:52.124Z,79.21
2019-04-06T13:12:52.189Z,80.20
2019-04-06T13:14:45.191Z,80.30
2019-04-06T13:15:45.379Z,79.24
2019-04-06T13:17:38.221Z,77.86
2019-04-06T13:18:38.283Z,78.02
2019-04-06T13:20:31.295Z,77.44
2019-04-06T13:21:31.331Z,77.34
2019-04-06T13:23:24.345Z,78.15
2019-04-06T13:24:24.639Z,76.81
2019-04-06T13:26:17.382Z,81.16
2019-04-06T13:27:17.437Z,81.41
2019-04-06T13:29:10.439Z,79.44
2019-04-06T13:30:10.771Z,79.24
2019-04-06T13:32:03.482Z,81.26
2019-04-06T13:33:03.676Z,80.49
2019-04-06T13:34:56.824Z,81.98
2019-04-06T13:35:56.871Z,81.41
2019-04-06T13:37:49.587Z,81.84
2019-04-06T13:38:49.638Z,81.84
2019-04-06T13:40:42.731Z,81.93
2019-04-06T13:41:42.716Z,82.31
2019-04-06T13:43:35.821Z,81.26
2019-04-06T13:44:35.732Z,82.21
2019-04-06T13:46:28.743Z,81.89
2019-04-06T13:47:28.878Z,80.40
2019-04-06T13:49:22.424Z,80.49
2019-04-06T13:50:22.348Z,78.42
2019-04-06T13:52:15.374Z,80.40
2019-04-06T13:53:15.790Z,80.49
2019-04-06T13:55:08.550Z,81.07
2019-04-06T13:56:08.658Z,79.44
2019-04-06T13:58:01.686Z,80.20
2019-04-06T13:59:01.688Z,79.63
2019-04-06T14:00:54.525Z,78.96
2019-04-06T14:01:54.828Z,80.30
2019-04-06T14:03:47.563Z,80.26
2019-04-06T14:04:47.720Z,79.30
2019-04-06T14:06:40.622Z,78.15
2019-04-06T14:07:40.664Z,79.97
2019-04-06T14:09:33.650Z,79.11
2019-04-06T14:10:33.712Z,79.05
2019-04-06T14:12:26.719Z,80.58
2019-04-06T14:13:26.916Z,80.11
2019-04-06T14:15:19.922Z,79.82
2019-04-06T14:16:20.012Z,80.30
2019-04-06T14:18:12.810Z,79.72
2019-04-06T14:19:12.860Z,79.63
2019-04-06T14:21:05.852Z,79.82
2019-04-06T14:22:06.218Z,80.11
2019-04-06T14:23:58.924Z,79.72
2019-04-06T14:24:59.014Z,80.26
2019-04-06T14:26:51.959Z,79.68
2019-04-06T14:27:52.435Z,78.92
2019-04-06T14:29:45.038Z,79.97
2019-04-06T14:30:45.422Z,78.72
2019-04-06T14:32:38.111Z,78.92
2019-04-06T14:33:38.140Z,79.01
2019-04-06T14:35:31.171Z,80.07
2019-04-06T14:36:31.191Z,80.26
2019-04-06T14:38:24.332Z,80.30
2019-04-06T14:39:24.241Z,80.35
2019-04-06T14:41:17.283Z,78.53
2019-04-06T14:42:17.289Z,80.16
2019-04-06T14:44:10.273Z,79.49
2019-04-06T14:45:10.333Z,79.97
2019-04-06T14:47:03.336Z,79.21
2019-04-06T14:48:03.836Z,79.24
2019-04-06T14:49:56.411Z,80.11
2019-04-06T14:50:56.424Z,81.16
2019-04-06T14:52:49.525Z,79.44
2019-04-06T14:53:49.470Z,80.15
2019-04-06T14:55:42.746Z,80.05
2019-04-06T14:56:42.979Z,79.86
2019-04-06T14:58:36.080Z,81.26
2019-04-06T14:59:36.073Z,81.07
2019-04-06T15:01:48.623Z,81.26
2019-04-06T15:02:29.465Z,81.07
2019-04-06T15:04:22.468Z,79.91
2019-04-06T15:05:22.190Z,79.72
2019-04-06T15:07:15.200Z,79.05
2019-04-06T15:08:15.224Z,81.07
2019-04-06T15:10:08.579Z,80.40
2019-04-06T15:11:08.336Z,80.01
2019-04-06T15:13:01.341Z,79.05
2019-04-06T15:14:01.333Z,80.20
2019-04-06T15:15:54.330Z,80.11
2019-04-06T15:16:54.783Z,81.74
2019-04-06T15:18:47.377Z,81.10
2019-04-06T15:19:47.417Z,81.20
2019-04-06T15:21:40.446Z,80.53
2019-04-06T15:22:40.475Z,81.01
2019-04-06T15:24:33.464Z,81.20
2019-04-06T15:25:33.536Z,81.10
2019-04-06T15:27:26.528Z,83.03
2019-04-06T15:28:26.572Z,81.87
2019-04-06T15:30:19.559Z,81.97
2019-04-06T15:31:20.206Z,82.26
2019-04-06T15:33:12.661Z,82.16
2019-04-06T15:34:12.663Z,79.76
2019-04-06T15:36:05.869Z,83.45
2019-04-06T15:37:07.312Z,81.30
2019-04-06T15:38:58.812Z,82.26
2019-04-06T15:39:58.774Z,81.68
2019-04-06T15:41:57.004Z,81.49
2019-04-06T15:42:51.825Z,82.16
2019-04-06T15:44:44.910Z,82.35
2019-04-06T15:45:44.896Z,82.84
2019-04-06T15:47:37.970Z,82.74
2019-04-06T15:48:39.932Z,82.26
2019-04-06T15:50:31.121Z,82.26
2019-04-06T15:51:31.134Z,83.80
2019-04-06T15:53:24.077Z,81.68
2019-04-06T15:54:24.057Z,82.16
2019-04-06T15:56:17.041Z,82.41
2019-04-06T15:57:17.103Z,82.31
2019-04-06T15:59:10.619Z,79.72
2019-04-06T16:00:10.658Z,80.01
2019-04-06T16:02:03.848Z,81.97
2019-04-06T16:03:03.716Z,81.30
2019-04-06T16:04:56.724Z,81.40
2019-04-06T16:05:57.741Z,82.74
2019-04-06T16:07:49.771Z,82.07
2019-04-06T16:08:49.815Z,82.35
2019-04-06T16:10:42.805Z,82.35
2019-04-06T16:11:42.862Z,83.70
2019-04-06T16:13:35.867Z,83.12
2019-04-06T16:14:35.914Z,82.16
2019-04-06T16:16:28.919Z,83.31
2019-04-06T16:17:29.047Z,82.84
2019-04-06T16:19:22.413Z,82.16
2019-04-06T16:20:22.016Z,81.97
2019-04-06T16:22:15.011Z,82.35
2019-04-06T16:23:15.061Z,82.07
2019-04-06T16:25:08.063Z,81.84
2019-04-06T16:26:08.419Z,82.07
2019-04-06T16:28:01.094Z,81.35
2019-04-06T16:29:01.158Z,81.54
2019-04-06T16:30:54.183Z,81.35
2019-04-06T16:31:54.211Z,80.30
2019-04-06T16:33:47.200Z,79.14
2019-04-06T16:34:47.262Z,79.24
2019-04-06T16:36:40.457Z,80.30
2019-04-06T16:37:40.469Z,79.91
2019-04-06T16:39:33.358Z,79.53
2019-04-06T16:40:33.799Z,78.19
2019-04-06T16:42:26.750Z,78.57
2019-04-06T16:43:26.439Z,78.77
2019-04-06T16:45:20.001Z,78.09
2019-04-06T16:46:19.975Z,77.42
2019-04-06T16:48:12.994Z,76.62
2019-04-06T16:49:13.127Z,76.17
2019-04-06T16:51:06.538Z,76.52
2019-04-06T16:52:06.098Z,76.52
2019-04-06T16:53:59.100Z,75.75
2019-04-06T16:54:59.132Z,75.08
2019-04-06T16:56:52.134Z,75.37
2019-04-06T16:57:52.175Z,75.08
2019-04-06T16:59:45.706Z,74.60
2019-04-06T17:00:46.082Z,74.60
2019-04-06T17:02:39.683Z,73.93
2019-04-06T17:03:39.287Z,74.02
2019-04-06T17:05:32.273Z,74.60
2019-04-06T17:06:32.334Z,73.93
2019-04-06T17:08:25.338Z,73.55
2019-04-06T17:09:25.398Z,73.26
2019-04-06T17:11:18.589Z,73.45
2019-04-06T17:12:18.444Z,73.93
2019-04-06T17:14:12.418Z,73.45
2019-04-06T17:15:11.999Z,73.65
2019-04-06T17:17:04.982Z,73.77
2019-04-06T17:18:05.044Z,73.20
2019-04-06T17:19:58.487Z,73.35
2019-04-06T17:20:58.091Z,73.26
2019-04-06T17:22:51.103Z,71.92
2019-04-06T17:23:51.525Z,71.34
2019-04-06T17:25:44.181Z,70.19
2019-04-06T17:26:44.529Z,70.96
2019-04-06T17:28:37.688Z,70.83
2019-04-06T17:29:37.245Z,71.72
2019-04-06T17:31:30.285Z,71.78
2019-04-06T17:32:36.928Z,71.21
2019-04-06T17:34:23.553Z,71.78
2019-04-06T17:35:23.338Z,71.59
2019-04-06T17:37:16.783Z,70.92
2019-04-06T17:38:16.881Z,70.92
2019-04-06T17:40:09.644Z,72.45
2019-04-06T17:41:09.440Z,72.07
2019-04-06T17:43:02.448Z,71.69
2019-04-06T17:44:02.489Z,72.36
2019-04-06T17:45:55.499Z,71.69
2019-04-06T17:46:55.538Z,71.78
2019-04-06T17:48:48.540Z,71.69
2019-04-06T17:49:48.593Z,71.21
2019-04-06T17:51:41.990Z,71.21
2019-04-06T17:52:41.636Z,70.54
2019-04-06T17:54:34.877Z,70.03
2019-04-06T17:55:34.743Z,70.70
2019-04-06T17:57:27.871Z,69.45
2019-04-06T17:58:27.744Z,69.26
2019-04-06T18:00:20.728Z,68.78
2019-04-06T18:01:21.028Z,68.40
2019-04-06T18:03:13.767Z,68.01
2019-04-06T18:04:13.838Z,67.72
2019-04-06T18:06:06.826Z,67.25
2019-04-06T18:07:07.476Z,66.74
2019-04-06T18:09:00.178Z,67.11
2019-04-06T18:09:59.954Z,67.11
2019-04-06T18:11:53.049Z,65.97
2019-04-06T18:12:53.220Z,66.25
2019-04-06T18:14:46.172Z,65.78
2019-04-06T18:15:46.152Z,65.58
2019-04-06T18:17:39.290Z,65.97
2019-04-06T18:18:39.228Z,65.39
2019-04-06T18:20:32.566Z,64.92
2019-04-06T18:21:32.347Z,65.11
2019-04-06T18:23:25.503Z,64.82
2019-04-06T18:24:25.197Z,64.92
2019-04-06T18:26:19.258Z,63.54
2019-04-06T18:27:18.393Z,63.29
2019-04-06T18:29:11.258Z,63.39
2019-04-06T18:30:11.362Z,62.40
2019-04-06T18:32:04.777Z,62.20
2019-04-06T18:33:04.345Z,61.91
2019-04-06T18:34:57.366Z,61.91
2019-04-06T18:35:57.460Z,61.25